Time;durP1;ratioP1;P1;durP2;ratioP2;P2;SDS_P1;SDS_P2;PMS_P1;PMS_P2;Temp;Humidity;BMP_temperature;BMP_pressure;BME280_temperature;BME280_humidity;BME280_pressure;Samples;Min_cycle;Max_cycle;Signal;HPM_P1;HPM_P2
2021/08/21 00:00:13;;;;;;;5.45;4.93;;;;;;;16.65;70.37;99109.63;2622226;54;20041;-68
2021/08/21 00:02:44;;;;;;;5.32;4.82;;;;;;;16.62;70.56;99110.91;2617171;54;20121;-68
2021/08/21 00:05:16;;;;;;;5.47;4.97;;;;;;;16.67;70.73;99116.38;2617860;54;20022;-68
2021/08/21 00:07:46;;;;;;;5.53;5.03;;;;;;;16.63;70.40;99101.84;2616926;51;20030;-70
2021/08/21 00:10:16;;;;;;;5.75;5.10;;;;;;;16.58;70.86;99107.06;2617162;54;20053;-72
2021/08/21 00:12:46;;;;;;;5.93;4.60;;;;;;;16.57;70.96;99108.06;2617900;54;20561;-69
2021/08/21 00:15:19;;;;;;;7.30;4.70;;;;;;;16.55;70.84;99107.50;2617934;54;20050;-69
2021/08/21 00:17:49;;;;;;;5.82;5.22;;;;;;;16.55;70.67;99113.66;2617464;54;20038;-69
2021/08/21 00:20:24;;;;;;;5.28;4.70;;;;;;;16.48;70.40;99109.41;2617110;54;20057;-69
2021/08/21 00:22:54;;;;;;;5.90;5.40;;;;;;;16.39;71.02;99102.75;2617666;54;20057;-69
2021/08/21 00:25:23;;;;;;;5.38;4.88;;;;;;;16.31;71.53;99110.03;2617359;54;20044;-70
2021/08/21 00:27:53;;;;;;;7.35;5.10;;;;;;;16.31;71.43;99112.69;2616670;47;20125;-68
2021/08/21 00:30:24;;;;;;;6.18;4.85;;;;;;;16.30;71.81;99107.59;2617440;47;20049;-69
2021/08/21 00:32:53;;;;;;;6.82;5.07;;;;;;;16.28;71.94;99106.97;2617815;54;20170;-69
2021/08/21 00:35:26;;;;;;;6.25;5.28;;;;;;;16.26;71.51;99111.72;2617697;54;20573;-69
2021/08/21 00:37:55;;;;;;;7.82;5.63;;;;;;;16.27;71.73;99108.81;2617518;31;20527;-69
2021/08/21 00:40:25;;;;;;;6.82;5.57;;;;;;;16.22;71.34;99106.03;2617252;47;20049;-69
2021/08/21 00:42:55;;;;;;;7.70;5.53;;;;;;;16.10;71.99;99100.59;2617885;54;20642;-69
2021/08/21 00:45:25;;;;;;;5.63;5.13;;;;;;;16.08;71.96;99105.34;2617181;47;20059;-69
2021/08/21 00:47:55;;;;;;;6.05;5.45;;;;;;;16.03;72.00;99096.38;2616863;54;20143;-69
2021/08/21 00:50:27;;;;;;;6.28;5.20;;;;;;;16.02;72.22;99108.06;2617338;47;20125;-69
2021/08/21 00:52:57;;;;;;;5.72;5.22;;;;;;;15.90;72.50;99109.84;2617179;51;20537;-69
2021/08/21 00:55:27;;;;;;;6.80;5.30;;;;;;;15.89;72.37;99105.53;2617097;51;20118;-69
2021/08/21 00:57:57;;;;;;;5.82;5.20;;;;;;;15.88;72.84;99101.22;2617569;39;20438;-69
2021/08/21 01:00:27;;;;;;;8.38;4.97;;;;;;;15.89;72.77;99105.53;2617546;39;20450;-69
2021/08/21 01:02:57;;;;;;;6.28;4.65;;;;;;;15.89;72.84;99097.53;2617300;54;20026;-69
2021/08/21 01:05:29;;;;;;;5.43;4.85;;;;;;;15.93;72.88;99098.75;2617145;54;20038;-69
2021/08/21 01:07:59;;;;;;;7.15;5.20;;;;;;;15.90;72.20;99099.97;2616636;54;20034;-69
2021/08/21 01:10:32;;;;;;;7.13;5.65;;;;;;;15.82;72.04;99097.59;2617089;54;20113;-69
2021/08/21 01:13:02;;;;;;;6.25;4.90;;;;;;;15.71;73.24;99100.97;2617061;54;20534;-69
2021/08/21 01:15:31;;;;;;;6.20;5.28;;;;;;;15.73;72.75;99102.41;2617283;51;20041;-69
2021/08/21 01:18:08;;;;;;;5.82;5.32;;;;;;;15.72;72.86;99095.44;2616682;47;20034;-69
2021/08/21 01:20:40;;;;;;;5.38;4.88;;;;;;;15.69;73.00;99097.72;2617376;47;20031;-69
2021/08/21 01:23:13;;;;;;;6.07;5.47;;;;;;;15.75;73.24;99097.66;2617700;50;20534;-69
2021/08/21 01:25:53;;;;;;;6.00;5.43;;;;;;;15.72;72.88;99099.97;2617637;47;20034;-69
2021/08/21 01:28:27;;;;;;;5.85;5.10;;;;;;;15.75;73.20;99097.66;2617406;47;20034;-69
2021/08/21 01:31:06;;;;;;;6.55;5.95;;;;;;;15.70;73.12;99088.69;2618335;54;20018;-69
2021/08/21 01:33:43;;;;;;;5.95;5.40;;;;;;;15.63;73.09;99096.69;2617669;54;20030;-69
2021/08/21 01:36:12;;;;;;;9.68;5.80;;;;;;;15.61;72.72;99096.94;2618143;39;20451;-69
2021/08/21 01:39:02;;;;;;;7.55;5.45;;;;;;;15.51;73.52;99085.13;2618182;54;20030;-68
2021/08/21 01:41:51;;;;;;;5.25;4.60;;;;;;;15.50;73.20;99088.81;2617655;54;20031;-69
2021/08/21 01:44:24;;;;;;;6.63;5.22;;;;;;;15.54;73.01;99085.50;2617737;54;20023;-69
2021/08/21 01:46:54;;;;;;;6.22;5.63;;;;;;;15.55;73.11;99083.66;2617680;47;20117;-69
2021/08/21 01:49:27;;;;;;;6.43;5.82;;;;;;;15.48;73.45;99085.56;2617944;39;20467;-69
2021/08/21 01:52:03;;;;;;;7.35;6.00;;;;;;;15.38;73.26;99079.91;2617913;47;20034;-69
2021/08/21 01:54:33;;;;;;;6.22;5.63;;;;;;;15.28;73.50;99083.88;2618364;47;20042;-68
2021/08/21 01:57:06;;;;;;;8.07;5.85;;;;;;;15.20;73.96;99088.66;2617811;54;20041;-69
2021/08/21 01:59:51;;;;;;;6.05;5.55;;;;;;;15.24;74.33;99085.31;2618207;54;20034;-69
2021/08/21 02:02:27;;;;;;;5.43;4.93;;;;;;;15.35;73.98;99083.81;2618159;54;20023;-68
2021/08/21 02:05:12;;;;;;;6.82;6.22;;;;;;;15.45;74.06;99083.34;2618787;39;20430;-69
2021/08/21 02:07:41;;;;;;;6.78;5.10;;;;;;;15.45;73.25;99072.69;2617424;47;20030;-69
2021/08/21 02:10:13;;;;;;;6.55;5.70;;;;;;;15.34;73.65;99076.84;2617940;54;20049;-69
2021/08/21 02:12:45;;;;;;;6.30;5.38;;;;;;;15.28;73.93;99073.22;2617848;47;20034;-69
2021/08/21 02:15:19;;;;;;;6.85;5.72;;;;;;;15.25;74.11;99070.97;2617494;47;20562;-69
2021/08/21 02:17:56;;;;;;;6.13;5.53;;;;;;;15.20;74.33;99073.47;2616916;54;20034;-69
2021/08/21 02:20:45;;;;;;;6.03;5.43;;;;;;;15.19;74.07;99074.50;2618143;54;20037;-69
2021/08/21 02:23:23;;;;;;;5.82;4.70;;;;;;;15.26;73.77;99066.47;2617438;47;20026;-68
2021/08/21 02:25:56;;;;;;;5.55;4.70;;;;;;;15.25;73.59;99072.81;2617682;47;20049;-68
2021/08/21 02:28:32;;;;;;;6.50;4.85;;;;;;;15.22;73.72;99068.72;2617264;54;20590;-67
2021/08/21 02:31:06;;;;;;;5.63;5.03;;;;;;;15.18;74.05;99072.06;2617785;47;20102;-68
2021/08/21 02:33:35;;;;;;;7.72;5.60;;;;;;;15.16;73.81;99064.28;2617946;47;20031;-68
2021/08/21 02:36:06;;;;;;;5.97;5.35;;;;;;;15.13;74.00;99067.38;2618920;39;20547;-68
2021/08/21 02:38:36;;;;;;;7.88;5.10;;;;;;;15.16;73.73;99056.28;2617951;54;20019;-68
2021/08/21 02:41:11;;;;;;;6.07;5.00;;;;;;;15.17;73.85;99054.44;2618335;54;20037;-68
2021/08/21 02:43:41;;;;;;;5.80;4.78;;;;;;;15.20;74.22;99060.16;2618293;54;20158;-68
2021/08/21 02:46:13;;;;;;;5.45;4.95;;;;;;;15.23;73.24;99056.25;2617620;54;20134;-69
2021/08/21 02:48:42;;;;;;;6.32;5.28;;;;;;;15.21;73.57;99059.13;2617680;54;20031;-69
2021/08/21 02:51:12;;;;;;;6.05;5.47;;;;;;;15.02;73.57;99055.59;2617960;54;20113;-69
2021/08/21 02:53:41;;;;;;;5.50;5.00;;;;;;;15.00;73.98;99062.16;2617834;54;20027;-69
2021/08/21 02:56:12;;;;;;;8.45;5.22;;;;;;;15.00;74.26;99052.31;2617364;47;20110;-69
2021/08/21 02:58:42;;;;;;;5.57;4.55;;;;;;;15.03;73.90;99057.22;2617146;46;20038;-68
2021/08/21 03:01:15;;;;;;;4.78;4.20;;;;;;;15.15;74.17;99051.19;2617690;48;20034;-68
2021/08/21 03:03:45;;;;;;;5.72;4.20;;;;;;;15.18;73.94;99048.91;2617360;54;20037;-67
2021/08/21 03:06:17;;;;;;;5.97;4.70;;;;;;;15.25;73.69;99047.00;2617146;47;20118;-68
2021/08/21 03:08:46;;;;;;;7.78;4.55;;;;;;;15.23;72.77;99049.09;2617197;47;20037;-68
2021/08/21 03:11:16;;;;;;;5.70;5.15;;;;;;;15.09;73.31;99048.34;2617228;54;20109;-68
2021/08/21 03:14:05;;;;;;;5.90;5.32;;;;;;;14.96;73.56;99050.28;2617860;47;20046;-68
2021/08/21 03:16:38;;;;;;;4.82;4.38;;;;;;;15.00;74.16;99054.97;2617133;54;20662;-68
2021/08/21 03:19:08;;;;;;;5.47;5.00;;;;;;;15.05;73.69;99052.47;2617605;54;20034;-68
2021/08/21 03:21:38;;;;;;;7.00;5.32;;;;;;;15.10;73.68;99047.34;2617349;54;20069;-68
2021/08/21 03:24:09;;;;;;;6.85;4.63;;;;;;;15.12;73.77;99044.44;2617372;47;20042;-67
2021/08/21 03:26:43;;;;;;;5.18;4.47;;;;;;;15.16;73.39;99045.66;2617139;54;20548;-67
2021/08/21 03:29:12;;;;;;;7.63;4.28;;;;;;;15.19;73.24;99052.41;2617388;47;20034;-67
2021/08/21 03:31:46;;;;;;;7.22;4.40;;;;;;;15.20;72.95;99052.16;2617525;47;20030;-68
2021/08/21 03:34:17;;;;;;;5.75;4.45;;;;;;;15.20;72.57;99052.16;2617590;54;20035;-68
2021/08/21 03:36:47;;;;;;;5.13;4.47;;;;;;;15.03;72.99;99051.06;2617188;54;20026;-68
2021/08/21 03:39:17;;;;;;;4.97;4.22;;;;;;;15.00;73.22;99046.16;2617434;47;20034;-68
2021/08/21 03:41:47;;;;;;;5.35;4.28;;;;;;;15.00;73.77;99044.31;2617626;47;20022;-68
2021/08/21 03:44:19;;;;;;;4.90;4.50;;;;;;;15.03;72.88;99049.22;2617296;54;20023;-68
2021/08/21 03:46:53;;;;;;;5.78;4.15;;;;;;;14.89;73.72;99050.31;2617385;47;20045;-68
2021/08/21 03:49:25;;;;;;;4.40;3.92;;;;;;;14.91;73.52;99052.78;2617877;39;20530;-69
2021/08/21 03:51:55;;;;;;;7.63;3.95;;;;;;;14.93;73.65;99046.19;2617787;47;20123;-68
2021/08/21 03:54:29;;;;;;;5.30;4.50;;;;;;;15.00;73.56;99054.16;2617910;39;20442;-68
2021/08/21 03:56:58;;;;;;;5.03;3.80;;;;;;;14.95;73.27;99048.66;2617503;54;20522;-68
2021/08/21 03:59:29;;;;;;;4.53;3.75;;;;;;;14.90;73.20;99049.31;2617620;47;20035;-68
2021/08/21 04:02:02;;;;;;;10.43;8.07;;;;;;;14.96;73.16;99055.63;2617522;47;20057;-68
2021/08/21 04:04:34;;;;;;;9.80;7.03;;;;;;;14.90;73.61;99056.47;2617359;47;20050;-68
2021/08/21 04:07:09;;;;;;;6.80;4.75;;;;;;;14.91;73.06;99050.13;2617143;47;20141;-69
2021/08/21 04:09:39;;;;;;;6.03;4.57;;;;;;;14.82;73.45;99054.91;2617702;39;20444;-69
2021/08/21 04:12:09;;;;;;;5.45;4.95;;;;;;;14.80;74.03;99051.63;2617238;47;20033;-69
2021/08/21 04:14:49;;;;;;;7.82;4.97;;;;;;;14.83;73.65;99060.00;2617113;47;20031;-69
2021/08/21 04:17:23;;;;;;;5.60;4.47;;;;;;;14.82;73.64;99062.88;2616818;54;20026;-68
2021/08/21 04:19:53;;;;;;;7.90;4.30;;;;;;;14.83;73.99;99064.50;2617338;54;20110;-69
2021/08/21 04:22:23;;;;;;;5.80;5.10;;;;;;;14.88;73.74;99059.34;2617811;54;20030;-68
2021/08/21 04:24:55;;;;;;;5.95;4.65;;;;;;;14.83;73.42;99061.84;2617319;47;20034;-68
2021/08/21 04:27:26;;;;;;;5.03;3.92;;;;;;;14.79;73.85;99061.44;2616881;54;20037;-68
2021/08/21 04:29:55;;;;;;;5.43;4.38;;;;;;;14.83;73.45;99054.66;2617256;54;20825;-68
2021/08/21 04:32:28;;;;;;;5.80;4.82;;;;;;;14.89;73.88;99060.97;2617355;47;20117;-68
2021/08/21 04:34:58;;;;;;;7.25;4.60;;;;;;;14.96;73.26;99066.25;2617144;54;20031;-68
2021/08/21 04:37:29;;;;;;;4.28;3.97;;;;;;;14.99;73.49;99065.84;2616810;54;20027;-68
2021/08/21 04:40:01;;;;;;;5.13;4.30;;;;;;;14.98;73.62;99067.69;2617168;54;20102;-68
2021/08/21 04:42:36;;;;;;;4.57;3.90;;;;;;;15.04;73.58;99069.47;2617657;54;20038;-69
2021/08/21 04:45:07;;;;;;;5.43;4.20;;;;;;;15.00;73.20;99065.63;2617748;54;20039;-68
2021/08/21 04:47:41;;;;;;;4.95;4.43;;;;;;;14.97;73.18;99076.69;2616511;47;20038;-70
2021/08/21 04:50:13;;;;;;;6.25;4.00;;;;;;;14.99;73.20;99071.16;2616768;54;20026;-70
2021/08/21 04:52:42;;;;;;;5.22;4.38;;;;;;;14.96;72.81;99069.75;2616988;54;20042;-69
2021/08/21 04:55:13;;;;;;;4.93;4.10;;;;;;;14.96;73.27;99079.56;2617954;31;20575;-70
2021/08/21 04:57:43;;;;;;;4.88;4.38;;;;;;;14.98;73.28;99077.50;2617123;47;20026;-69
2021/08/21 05:00:14;;;;;;;5.97;5.38;;;;;;;15.07;72.72;99071.72;2617623;47;20038;-69
2021/08/21 05:03:18;;;;;;;5.45;4.85;;;;;;;15.01;72.89;99069.91;2617952;47;20050;-68
2021/08/21 05:05:49;;;;;;;4.80;4.30;;;;;;;15.02;72.94;99076.88;2617624;47;20073;-70
2021/08/21 05:08:18;;;;;;;10.00;5.53;;;;;;;15.08;73.31;99081.34;2617125;54;20030;-69
2021/08/21 05:10:55;;;;;;;4.97;4.43;;;;;;;15.18;73.21;99083.50;2618013;39;20454;-69
2021/08/21 05:13:25;;;;;;;5.35;4.80;;;;;;;15.25;72.92;99086.94;2617767;54;20071;-69
2021/08/21 05:15:56;;;;;;;6.47;5.18;;;;;;;15.33;72.47;99091.19;2618021;47;20034;-68
2021/08/21 05:18:51;;;;;;;5.53;4.68;;;;;;;15.23;72.62;99093.53;2617701;47;20045;-68
2021/08/21 05:21:29;;;;;;;5.45;4.30;;;;;;;15.21;72.53;99090.28;2617885;54;20894;-68
2021/08/21 05:24:00;;;;;;;6.88;5.25;;;;;;;15.19;72.82;99087.03;2617903;54;20022;-68
2021/08/21 05:26:31;;;;;;;10.02;5.82;;;;;;;15.25;72.47;99086.13;2617384;47;20034;-68
2021/08/21 05:29:00;;;;;;;6.63;5.13;;;;;;;15.28;72.05;99072.41;2617906;54;20035;-68
2021/08/21 05:31:31;;;;;;;5.22;4.10;;;;;;;15.22;72.43;99079.38;2617952;47;20565;-68
2021/08/21 05:34:03;;;;;;;7.20;4.93;;;;;;;15.24;72.39;99080.00;2617991;47;20546;-68
2021/08/21 05:36:33;;;;;;;8.05;5.05;;;;;;;15.14;72.21;99081.50;2617620;54;20204;-68
2021/08/21 05:39:02;;;;;;;6.47;5.28;;;;;;;15.08;72.73;99077.88;2618672;54;20042;-67
2021/08/21 05:41:32;;;;;;;9.07;5.78;;;;;;;15.22;72.96;99079.38;2618577;54;20592;-68
2021/08/21 05:44:01;;;;;;;6.45;5.47;;;;;;;15.26;72.53;99071.78;2618952;39;20438;-68
2021/08/21 05:46:31;;;;;;;6.93;5.07;;;;;;;15.30;72.56;99073.78;2618115;54;20060;-68
2021/08/21 05:49:03;;;;;;;8.00;4.50;;;;;;;15.35;72.52;99073.19;2618434;54;20018;-68
2021/08/21 05:51:33;;;;;;;5.80;4.85;;;;;;;15.38;71.96;99072.72;2618718;54;20030;-67
2021/08/21 05:54:02;;;;;;;5.65;4.82;;;;;;;15.41;72.37;99068.81;2623241;54;20054;-69
2021/08/21 05:56:32;;;;;;;5.95;5.22;;;;;;;15.47;72.24;99071.44;2623473;54;20124;-69
2021/08/21 05:59:01;;;;;;;7.95;5.25;;;;;;;15.46;71.84;99076.97;2623299;54;20030;-69
2021/08/21 06:01:31;;;;;;;7.25;4.63;;;;;;;15.54;71.88;99076.69;2622450;54;20030;-69
2021/08/21 06:04:03;;;;;;;5.25;4.75;;;;;;;15.60;72.22;99084.66;2619319;39;20451;-68
2021/08/21 06:06:35;;;;;;;6.60;4.57;;;;;;;15.64;72.02;99086.88;2617486;54;20031;-68
2021/08/21 06:09:06;;;;;;;6.53;4.80;;;;;;;15.71;71.67;99087.66;2617720;54;20073;-68
2021/08/21 06:11:35;;;;;;;8.10;6.78;;;;;;;15.79;71.95;99085.50;2617877;47;20526;-68
2021/08/21 06:14:05;;;;;;;5.38;4.88;;;;;;;15.71;71.54;99088.47;2618381;54;20053;-68
2021/08/21 06:16:34;;;;;;;7.38;5.90;;;;;;;15.68;71.26;99083.59;2620845;54;20026;-69
2021/08/21 06:19:07;;;;;;;6.15;5.53;;;;;;;15.70;72.11;99084.16;2622122;54;20022;-69
2021/08/21 06:21:36;;;;;;;6.63;5.53;;;;;;;15.84;71.45;99083.03;2622307;54;20082;-68
2021/08/21 06:24:06;;;;;;;10.35;6.82;;;;;;;15.96;71.48;99083.13;2618854;54;20541;-68
2021/08/21 06:26:36;;;;;;;5.82;5.28;;;;;;;16.05;71.06;99089.78;2617789;54;20023;-68
2021/08/21 06:29:05;;;;;;;5.97;5.35;;;;;;;16.20;71.27;99089.41;2618458;39;20523;-68
2021/08/21 06:31:35;;;;;;;5.88;5.28;;;;;;;16.30;70.85;99088.91;2618267;54;20122;-68
2021/08/21 06:34:08;;;;;;;6.88;6.18;;;;;;;16.34;70.22;99085.56;2617946;54;20042;-69
2021/08/21 06:36:37;;;;;;;5.90;5.40;;;;;;;16.39;70.41;99092.09;2617757;54;20038;-68
2021/08/21 06:39:07;;;;;;;7.07;6.03;;;;;;;16.41;70.01;99088.16;2618600;39;20517;-68
2021/08/21 06:41:36;;;;;;;6.43;5.75;;;;;;;16.45;70.09;99088.50;2618155;54;20022;-68
2021/08/21 06:44:06;;;;;;;8.60;6.60;;;;;;;16.54;70.00;99088.00;2617865;54;20129;-68
2021/08/21 06:46:45;;;;;;;7.30;5.68;;;;;;;16.60;70.56;99088.94;2617489;54;20569;-68
2021/08/21 06:49:17;;;;;;;10.02;8.60;;;;;;;16.75;70.11;99092.09;2617748;54;20086;-68
2021/08/21 06:51:46;;;;;;;11.93;10.10;;;;;;;16.87;70.15;99096.66;2617919;54;20027;-68
2021/08/21 06:54:16;;;;;;;11.35;8.02;;;;;;;16.99;69.40;99084.16;2617914;54;20038;-68
2021/08/21 06:56:49;;;;;;;9.63;8.63;;;;;;;17.13;69.42;99082.91;2617527;54;20127;-69
2021/08/21 06:59:18;;;;;;;9.20;6.45;;;;;;;17.21;68.98;99079.91;2617990;54;20090;-69
2021/08/21 07:01:48;;;;;;;6.97;6.25;;;;;;;17.31;69.12;99090.88;2618083;54;20035;-69
2021/08/21 07:04:20;;;;;;;8.90;5.72;;;;;;;17.36;68.55;99084.84;2618027;54;20030;-69
2021/08/21 07:06:50;;;;;;;6.05;5.43;;;;;;;17.45;68.71;99083.47;2617905;39;20801;-68
2021/08/21 07:09:19;;;;;;;5.65;5.15;;;;;;;17.56;68.31;99081.84;2617729;54;20068;-68
2021/08/21 07:11:49;;;;;;;6.20;5.70;;;;;;;17.66;68.29;99083.94;2617802;54;20078;-68
2021/08/21 07:14:18;;;;;;;6.65;5.80;;;;;;;17.76;67.67;99084.22;2618437;39;20417;-68
2021/08/21 07:16:48;;;;;;;8.32;6.07;;;;;;;17.77;67.67;99081.31;2617723;54;20909;-68
2021/08/21 07:19:20;;;;;;;7.60;6.03;;;;;;;17.89;68.05;99080.50;2617794;54;20535;-68
2021/08/21 07:21:54;;;;;;;7.03;6.32;;;;;;;18.01;67.61;99082.13;2618037;54;20530;-68
2021/08/21 07:24:24;;;;;;;6.97;6.03;;;;;;;18.14;67.57;99081.06;2618882;54;20060;-68
2021/08/21 07:26:54;;;;;;;9.13;6.40;;;;;;;18.30;67.30;99083.00;2618925;31;20522;-69
2021/08/21 07:29:23;;;;;;;6.88;5.65;;;;;;;18.36;66.79;99075.88;2617852;54;20030;-69
2021/08/21 07:31:54;;;;;;;6.20;5.60;;;;;;;18.46;66.99;99076.09;2618174;39;20542;-69
2021/08/21 07:34:26;;;;;;;7.53;5.32;;;;;;;18.63;66.59;99076.16;2617966;54;20023;-69
2021/08/21 07:36:55;;;;;;;6.70;6.10;;;;;;;18.68;66.15;99070.09;2617432;54;20034;-69
2021/08/21 07:39:25;;;;;;;7.10;6.10;;;;;;;18.73;66.35;99064.84;2618016;54;20142;-68
2021/08/21 07:41:54;;;;;;;5.85;4.97;;;;;;;18.78;66.43;99071.16;2617906;54;20082;-68
2021/08/21 07:44:24;;;;;;;5.03;4.53;;;;;;;18.91;66.54;99075.41;2617779;54;20018;-68
2021/08/21 07:46:53;;;;;;;6.65;5.32;;;;;;;19.02;65.94;99069.19;2616767;47;20090;-68
2021/08/21 07:49:25;;;;;;;16.30;8.45;;;;;;;19.13;65.38;99075.50;2617658;39;20754;-68
2021/08/21 07:51:55;;;;;;;11.50;5.80;;;;;;;19.28;65.18;99075.78;2617324;47;20061;-68
2021/08/21 07:54:24;;;;;;;5.28;4.60;;;;;;;19.38;64.37;99074.31;2617846;54;20114;-68
2021/08/21 07:56:54;;;;;;;11.38;5.80;;;;;;;19.47;64.50;99078.22;2617443;54;20114;-69
2021/08/21 07:59:23;;;;;;;7.00;5.10;;;;;;;19.59;64.01;99083.50;2617944;54;20039;-68
2021/08/21 08:01:53;;;;;;;7.18;4.88;;;;;;;19.66;63.95;99081.50;2617818;54;20039;-68
2021/08/21 08:04:22;;;;;;;5.78;4.80;;;;;;;19.73;62.97;99080.28;2617880;54;20030;-69
2021/08/21 08:06:55;;;;;;;10.05;6.78;;;;;;;19.81;63.38;99075.56;2617397;54;20618;-69
2021/08/21 08:09:24;;;;;;;6.30;5.57;;;;;;;19.91;62.85;99073.81;2621586;54;20059;-69
2021/08/21 08:11:53;;;;;;;6.93;5.72;;;;;;;20.00;62.73;99068.84;2619261;47;20510;-69
2021/08/21 08:14:23;;;;;;;5.45;4.47;;;;;;;20.07;62.40;99066.78;2622055;54;20026;-69
2021/08/21 08:16:52;;;;;;;5.75;4.93;;;;;;;20.23;62.59;99062.44;2620119;54;20033;-68
2021/08/21 08:19:22;;;;;;;6.03;3.95;;;;;;;20.36;61.85;99062.06;2620043;54;20042;-69
2021/08/21 08:21:54;;;;;;;4.25;3.85;;;;;;;20.47;61.77;99063.81;2623850;39;20085;-69
2021/08/21 08:24:24;;;;;;;4.80;4.30;;;;;;;20.60;61.11;99067.22;2623809;54;20027;-69
2021/08/21 08:26:54;;;;;;;5.82;4.00;;;;;;;20.67;61.13;99063.28;2623104;54;20022;-69
2021/08/21 08:29:23;;;;;;;3.85;3.40;;;;;;;20.77;60.64;99066.06;2623056;54;20042;-69
2021/08/21 08:31:53;;;;;;;3.78;3.47;;;;;;;20.88;60.36;99072.34;2623518;54;20034;-69
2021/08/21 08:34:27;;;;;;;10.10;4.45;;;;;;;20.94;59.71;99074.03;2623957;54;20038;-69
2021/08/21 08:36:59;;;;;;;4.18;3.78;;;;;;;20.98;59.90;99069.78;2624389;54;20034;-71
2021/08/21 08:39:29;;;;;;;5.55;4.35;;;;;;;21.09;60.33;99065.31;2624691;39;20130;-69
2021/08/21 08:42:01;;;;;;;3.70;2.97;;;;;;;21.19;59.27;99072.66;2624077;54;20075;-70
2021/08/21 08:44:34;;;;;;;5.30;4.70;;;;;;;21.22;59.16;99070.25;2625486;39;20215;-71
2021/08/21 08:47:04;;;;;;;4.88;4.45;;;;;;;21.34;57.42;99063.94;2624715;54;20038;-69
2021/08/21 08:49:34;;;;;;;4.57;4.18;;;;;;;21.54;57.22;99068.66;2624758;54;20045;-69
2021/08/21 08:52:08;;;;;;;5.50;4.78;;;;;;;21.66;56.14;99056.66;2624936;54;20035;-69
2021/08/21 08:54:37;;;;;;;11.15;6.40;;;;;;;21.74;56.14;99053.47;2620989;54;20045;-68
2021/08/21 08:57:07;;;;;;;5.85;4.05;;;;;;;21.76;55.73;99054.03;2624119;31;20548;-69
2021/08/21 08:59:37;;;;;;;23.48;21.05;;;;;;;21.83;55.47;99056.47;2620534;54;20037;-66
2021/08/21 09:02:06;;;;;;;6.10;4.18;;;;;;;21.93;55.83;99056.56;2619321;54;20031;-67
2021/08/21 09:04:37;;;;;;;4.22;3.55;;;;;;;22.04;55.67;99059.28;2618943;54;20049;-67
2021/08/21 09:07:12;;;;;;;3.97;3.67;;;;;;;22.19;54.64;99057.53;2618382;54;20158;-68
2021/08/21 09:09:43;;;;;;;3.90;3.50;;;;;;;22.33;54.32;99059.72;2618347;54;20034;-67
2021/08/21 09:12:26;;;;;;;3.28;2.95;;;;;;;22.38;54.53;99049.00;2618134;54;20026;-68
2021/08/21 09:14:56;;;;;;;4.07;3.67;;;;;;;22.41;54.28;99049.28;2618124;54;20034;-67
2021/08/21 09:17:25;;;;;;;4.90;4.22;;;;;;;22.47;54.20;99050.09;2618050;39;20458;-67
2021/08/21 09:20:07;;;;;;;4.15;2.97;;;;;;;22.52;53.61;99043.91;2618235;54;20038;-68
2021/08/21 09:22:41;;;;;;;3.00;2.70;;;;;;;22.49;54.20;99039.84;2617981;54;20034;-68
2021/08/21 09:25:12;;;;;;;4.53;3.80;;;;;;;22.65;53.48;99038.81;2618199;54;20042;-68
2021/08/21 09:27:42;;;;;;;6.13;3.47;;;;;;;22.82;53.00;99044.00;2617107;47;20037;-68
2021/08/21 09:30:15;;;;;;;5.93;3.78;;;;;;;22.83;52.69;99037.53;2617179;54;20037;-68
2021/08/21 09:32:45;;;;;;;4.45;3.30;;;;;;;22.81;52.59;99045.06;2617827;54;20542;-69
2021/08/21 09:35:16;;;;;;;5.28;3.75;;;;;;;22.87;52.57;99041.31;2618045;54;20050;-68
2021/08/21 09:37:53;;;;;;;4.95;3.15;;;;;;;22.91;51.99;99034.34;2617570;54;20030;-71
2021/08/21 09:40:33;;;;;;;3.25;3.00;;;;;;;22.96;51.99;99036.22;2617811;54;20031;-69
2021/08/21 09:43:03;;;;;;;4.03;3.30;;;;;;;22.95;52.56;99030.03;2619132;39;20537;-69
2021/08/21 09:45:35;;;;;;;12.80;11.35;;;;;;;23.12;51.95;99023.59;2619468;31;20553;-67
2021/08/21 09:48:08;;;;;;;3.30;3.00;;;;;;;23.17;51.44;99027.06;2618231;54;20038;-68
2021/08/21 09:50:40;;;;;;;4.82;3.10;;;;;;;23.11;51.91;99025.47;2618665;39;20435;-67
2021/08/21 09:53:14;;;;;;;7.47;3.95;;;;;;;23.35;51.22;99038.41;2618333;47;20125;-67
2021/08/21 09:55:43;;;;;;;6.00;3.47;;;;;;;23.51;51.33;99029.22;2621442;54;20034;-67
2021/08/21 09:58:17;;;;;;;4.35;3.42;;;;;;;23.75;50.78;99018.69;2619747;54;20085;-67
2021/08/21 10:00:47;;;;;;;4.30;3.90;;;;;;;23.87;49.60;99023.78;2622578;54;20042;-67
2021/08/21 10:03:17;;;;;;;4.55;4.05;;;;;;;23.94;49.19;99016.22;2624019;54;20042;-68
2021/08/21 10:05:48;;;;;;;5.38;4.30;;;;;;;23.87;49.46;99019.19;2622952;54;20038;-68
2021/08/21 10:08:25;;;;;;;4.53;3.80;;;;;;;23.80;49.79;99021.38;2621552;54;20038;-68
2021/08/21 10:10:58;;;;;;;5.10;3.60;;;;;;;23.92;48.96;99021.91;2621893;54;20150;-69
2021/08/21 10:13:30;;;;;;;4.68;3.40;;;;;;;24.01;48.56;99013.22;2621847;54;20039;-69
2021/08/21 10:16:03;;;;;;;3.73;2.90;;;;;;;24.01;49.42;99022.13;2622400;54;20053;-67
2021/08/21 10:18:33;;;;;;;9.00;3.35;;;;;;;24.07;49.57;99018.31;2621827;54;20071;-68
2021/08/21 10:21:03;;;;;;;6.20;3.67;;;;;;;24.15;49.05;99012.34;2623891;54;20054;-66
2021/08/21 10:23:36;;;;;;;13.18;3.95;;;;;;;24.22;48.85;99012.06;2624727;54;20022;-65
2021/08/21 10:26:11;;;;;;;3.67;3.13;;;;;;;24.26;48.95;99005.03;2624357;54;20034;-67
2021/08/21 10:28:43;;;;;;;5.15;3.40;;;;;;;24.28;48.41;99012.84;2623210;54;20030;-67
2021/08/21 10:31:40;;;;;;;4.40;4.00;;;;;;;24.46;48.07;99020.34;2622815;54;20086;-67
2021/08/21 10:34:11;;;;;;;3.90;3.60;;;;;;;24.60;47.42;99013.25;2623652;46;20022;-68
2021/08/21 10:36:47;;;;;;;4.95;3.60;;;;;;;24.62;47.39;99007.56;2623564;54;20026;-67
2021/08/21 10:39:22;;;;;;;4.38;3.97;;;;;;;24.64;47.16;98999.97;2623933;54;20062;-67
2021/08/21 10:41:54;;;;;;;4.82;3.03;;;;;;;24.55;47.18;99004.38;2623201;54;20055;-67
2021/08/21 10:44:43;;;;;;;3.47;2.90;;;;;;;24.59;47.17;98998.13;2623408;54;20051;-68
2021/08/21 10:47:38;;;;;;;4.18;3.20;;;;;;;24.73;46.45;99001.00;2622739;54;20567;-67
2021/08/21 10:50:35;;;;;;;5.28;3.58;;;;;;;24.84;46.43;98991.72;2623892;54;20158;-67
2021/08/21 10:53:10;;;;;;;3.33;3.03;;;;;;;25.02;46.44;99000.25;2623536;46;20074;-68
2021/08/21 10:55:44;;;;;;;3.28;2.97;;;;;;;25.09;45.91;98996.16;2623927;47;20026;-68
2021/08/21 10:58:17;;;;;;;4.45;3.67;;;;;;;25.11;46.04;98996.69;2623610;54;20030;-67
2021/08/21 11:00:58;;;;;;;4.80;3.25;;;;;;;25.03;45.95;98994.56;2624072;54;20075;-68
2021/08/21 11:03:53;;;;;;;3.92;3.47;;;;;;;24.97;46.55;98992.97;2624059;54;20042;-68
2021/08/21 11:06:37;;;;;;;5.00;3.47;;;;;;;25.06;46.62;98990.47;2624047;54;20038;-67
2021/08/21 11:09:08;;;;;;;3.30;2.97;;;;;;;24.98;46.61;98991.88;2622639;54;20191;-68
2021/08/21 11:11:45;;;;;;;4.68;3.30;;;;;;;25.00;46.59;98989.72;2622816;54;20078;-67
2021/08/21 11:14:40;;;;;;;4.05;3.45;;;;;;;25.18;46.67;98991.75;2622577;54;20034;-67
2021/08/21 11:17:11;;;;;;;3.90;3.50;;;;;;;25.40;46.32;98988.59;2621166;46;20042;-67
2021/08/21 11:19:45;;;;;;;3.42;3.13;;;;;;;25.54;45.47;98983.31;2622065;54;20030;-67
2021/08/21 11:22:27;;;;;;;4.60;3.45;;;;;;;25.70;45.76;98992.06;2622420;54;20045;-68
2021/08/21 11:25:09;;;;;;;3.38;2.90;;;;;;;25.75;45.21;98992.00;2622479;54;20030;-67
2021/08/21 11:27:46;;;;;;;4.45;3.70;;;;;;;25.76;45.09;98985.53;2622528;54;20030;-67
2021/08/21 11:30:26;;;;;;;3.95;3.60;;;;;;;25.92;44.61;98980.75;2623944;39;20407;-66
2021/08/21 11:33:05;;;;;;;4.00;3.60;;;;;;;26.00;44.91;98990.13;2622450;54;20038;-66
2021/08/21 11:35:38;;;;;;;3.95;3.42;;;;;;;26.09;43.73;98986.53;2621901;54;20027;-67
2021/08/21 11:38:09;;;;;;;4.57;3.65;;;;;;;26.07;43.85;98983.28;2622416;54;20054;-68
2021/08/21 11:40:42;;;;;;;5.72;5.22;;;;;;;26.07;43.94;98986.00;2623884;54;20037;-67
2021/08/21 11:43:15;;;;;;;3.40;3.13;;;;;;;26.10;43.89;98980.00;2626084;39;20399;-68
2021/08/21 11:45:46;;;;;;;4.75;3.17;;;;;;;26.14;43.75;98975.63;2622698;54;20030;-67
2021/08/21 11:48:17;;;;;;;4.10;3.30;;;;;;;26.15;43.01;98973.72;2622608;54;20059;-66
2021/08/21 11:50:47;;;;;;;3.78;3.40;;;;;;;26.08;43.75;98979.47;2623463;54;20033;-67
2021/08/21 11:53:22;;;;;;;4.90;3.50;;;;;;;26.23;43.66;98970.34;2623189;54;20030;-67
2021/08/21 11:55:53;;;;;;;5.38;4.03;;;;;;;26.18;43.42;98968.50;2623588;54;20034;-67